Terminal Aerodrome Forecast
Issued by NWS San Angelo, TX

Home | Current Version | Previous Version | Text Only | Print | Product List | Glossary On
Versions: 1 2 3 4 5 6 7 8 9 10 11 12 13 14 15 16 17 18 19 20 21 22 23 24 25 26
991
FTUS44 KSJT 221400 AAA
TAFSJT
TAF AMD
KSJT 221411Z 2214/2312 10008KT 6SM BR OVC007
     FM222100 12011KT P6SM OVC015
     FM230100 12010KT P6SM OVC008
     FM230500 13013G20KT P6SM OVC004=

USA.gov is the U.S. government's official web portal to all federal, state and local government web resources and services.